createdAt,value
2018-10-03T00:02:20.031Z,-83
2018-10-03T00:04:53.173Z,-83
2018-10-03T00:07:29.707Z,-83
2018-10-03T00:10:03.491Z,-82
2018-10-03T00:12:36.273Z,-83
2018-10-03T00:17:51.808Z,-83
2018-10-03T00:20:25.106Z,-82
2018-10-03T00:23:00.875Z,-83
2018-10-03T00:25:37.709Z,-82
2018-10-03T00:28:12.997Z,-83
2018-10-03T00:30:45.868Z,-83
2018-10-03T00:33:19.600Z,-82
2018-10-03T00:35:57.534Z,-83
2018-10-03T00:38:32.413Z,-83
2018-10-03T00:41:04.839Z,-82
2018-10-03T00:43:38.123Z,-83
2018-10-03T00:46:13.493Z,-83
2018-10-03T00:48:49.158Z,-83
2018-10-03T00:51:22.053Z,-83
2018-10-03T00:53:54.915Z,-83
2018-10-03T00:56:29.157Z,-82
2018-10-03T00:59:02.260Z,-83
2018-10-03T01:01:35.528Z,-83
2018-10-03T01:04:08.833Z,-82
2018-10-03T01:06:41.460Z,-82
2018-10-03T01:09:14.831Z,-82
2018-10-03T01:11:47.009Z,-83
2018-10-03T01:14:19.782Z,-83
2018-10-03T01:16:53.300Z,-82
2018-10-03T01:19:26.152Z,-84
2018-10-03T01:21:58.794Z,-84
2018-10-03T01:24:31.216Z,-83
2018-10-03T01:27:03.432Z,-82
2018-10-03T01:29:36.367Z,-83
2018-10-03T01:32:08.563Z,-83
2018-10-03T01:34:41.226Z,-83
2018-10-03T01:37:14.620Z,-84
2018-10-03T01:39:47.814Z,-84
2018-10-03T01:42:19.814Z,-83
2018-10-03T01:44:51.996Z,-83
2018-10-03T01:47:24.391Z,-83
2018-10-03T01:49:56.401Z,-83
2018-10-03T01:52:26.781Z,-83
2018-10-03T01:54:57.215Z,-83
2018-10-03T01:57:27.854Z,-83
2018-10-03T01:59:58.278Z,-84
2018-10-03T02:02:29.071Z,-83
2018-10-03T02:04:59.629Z,-83
2018-10-03T02:07:30.147Z,-84
2018-10-03T02:10:00.562Z,-83
2018-10-03T02:12:31.325Z,-83
2018-10-03T02:15:01.615Z,-84
2018-10-03T02:17:31.941Z,-83
2018-10-03T02:20:02.229Z,-83
2018-10-03T02:22:32.565Z,-83
2018-10-03T02:25:02.997Z,-83
2018-10-03T02:27:33.874Z,-83
2018-10-03T02:30:04.253Z,-83
2018-10-03T02:32:34.616Z,-83
2018-10-03T02:35:05.025Z,-83
2018-10-03T02:37:35.311Z,-83
2018-10-03T02:40:05.775Z,-83
2018-10-03T02:42:36.102Z,-83
2018-10-03T02:45:06.510Z,-83
2018-10-03T02:47:36.785Z,-83
2018-10-03T02:50:07.200Z,-85
2018-10-03T02:52:37.473Z,-82
2018-10-03T02:55:07.823Z,-83
2018-10-03T02:57:38.303Z,-83
2018-10-03T03:00:08.750Z,-83
2018-10-03T03:02:39.095Z,-83
2018-10-03T03:05:09.443Z,-83
2018-10-03T03:07:39.783Z,-84
2018-10-03T03:10:10.095Z,-83
2018-10-03T03:12:40.390Z,-84
2018-10-03T03:15:11.030Z,-83
2018-10-03T03:17:41.348Z,-83
2018-10-03T03:20:11.687Z,-83
2018-10-03T03:22:42.844Z,-83
2018-10-03T03:25:13.248Z,-83
2018-10-03T03:27:43.855Z,-83
2018-10-03T03:30:14.582Z,-83
2018-10-03T03:32:45.011Z,-84
2018-10-03T03:35:16.111Z,-83
2018-10-03T03:37:46.766Z,-83
2018-10-03T03:40:17.105Z,-83
2018-10-03T03:42:47.394Z,-83
2018-10-03T03:45:18.016Z,-84
2018-10-03T03:47:48.389Z,-82
2018-10-03T03:50:19.278Z,-84
2018-10-03T03:52:49.578Z,-83
2018-10-03T03:55:20.110Z,-83
2018-10-03T03:57:50.413Z,-83
2018-10-03T04:00:20.904Z,-83
2018-10-03T04:02:51.209Z,-83
2018-10-03T04:05:21.638Z,-83
2018-10-03T04:07:51.971Z,-83
2018-10-03T04:10:22.238Z,-83
2018-10-03T04:12:52.809Z,-83
2018-10-03T04:15:23.462Z,-83
2018-10-03T04:17:54.034Z,-83
2018-10-03T04:20:24.498Z,-83
2018-10-03T04:22:54.844Z,-83
2018-10-03T04:25:25.155Z,-82
2018-10-03T04:27:55.518Z,-83
2018-10-03T04:30:25.805Z,-83
2018-10-03T04:32:56.182Z,-83
2018-10-03T04:35:26.702Z,-84
2018-10-03T04:37:57.079Z,-84
2018-10-03T04:40:27.398Z,-82
2018-10-03T04:42:57.703Z,-83
2018-10-03T04:45:27.978Z,-84
2018-10-03T04:47:58.316Z,-83
2018-10-03T04:50:28.871Z,-83
2018-10-03T04:52:59.163Z,-83
2018-10-03T04:55:35.367Z,-83
2018-10-03T04:58:05.807Z,-83
2018-10-03T05:00:36.103Z,-84
2018-10-03T05:03:06.829Z,-83
2018-10-03T05:05:37.177Z,-83
2018-10-03T05:08:07.519Z,-83
2018-10-03T05:10:37.852Z,-82
2018-10-03T05:13:08.322Z,-83
2018-10-03T05:15:38.619Z,-83
2018-10-03T05:18:09.184Z,-83
2018-10-03T05:20:39.555Z,-83
2018-10-03T05:23:10.034Z,-83
2018-10-03T05:25:40.343Z,-83
2018-10-03T05:28:10.752Z,-83
2018-10-03T05:30:41.062Z,-83
2018-10-03T05:33:11.669Z,-83
2018-10-03T05:35:41.955Z,-82
2018-10-03T05:38:13.207Z,-82
2018-10-03T05:40:43.746Z,-82
2018-10-03T05:43:14.199Z,-82
2018-10-03T05:45:44.934Z,-86
2018-10-03T05:48:16.126Z,-86
2018-10-03T05:50:46.426Z,-86
2018-10-03T05:53:17.215Z,-87
2018-10-03T05:56:04.495Z,-87
2018-10-03T05:58:39.172Z,-85
2018-10-03T06:01:12.317Z,-86
2018-10-03T06:03:50.479Z,-86
2018-10-03T06:06:23.132Z,-85
2018-10-03T06:08:53.482Z,-86
2018-10-03T06:11:27.152Z,-87
2018-10-03T06:14:01.628Z,-85
2018-10-03T06:16:44.048Z,-85
2018-10-03T06:19:25.631Z,-86
2018-10-03T06:21:56.382Z,-86
2018-10-03T06:24:28.204Z,-85
2018-10-03T06:27:01.318Z,-84
2018-10-03T06:29:40.119Z,-86
2018-10-03T06:32:17.179Z,-85
2018-10-03T06:34:51.771Z,-86
2018-10-03T06:37:54.105Z,-87
2018-10-03T06:40:54.643Z,-86
2018-10-03T06:43:37.440Z,-86
2018-10-03T06:46:10.304Z,-86
2018-10-03T06:48:48.023Z,-85
2018-10-03T06:51:31.528Z,-85
2018-10-03T06:54:07.091Z,-87
2018-10-03T06:56:37.636Z,-86
2018-10-03T06:59:09.536Z,-86
2018-10-03T07:01:40.481Z,-86
2018-10-03T07:04:12.168Z,-86
2018-10-03T07:06:45.109Z,-86
2018-10-03T07:09:16.127Z,-85
2018-10-03T07:11:46.604Z,-85
2018-10-03T07:14:18.043Z,-85
2018-10-03T07:16:54.129Z,-88
2018-10-03T07:19:25.411Z,-85
2018-10-03T07:21:57.329Z,-87
2018-10-03T07:24:28.522Z,-86
2018-10-03T07:26:59.332Z,-87
2018-10-03T07:29:30.470Z,-85
2018-10-03T07:32:01.272Z,-89
2018-10-03T07:34:33.582Z,-85
2018-10-03T07:37:03.971Z,-85
2018-10-03T07:39:35.270Z,-88
2018-10-03T07:42:05.642Z,-85
2018-10-03T07:44:35.982Z,-86
2018-10-03T07:47:07.472Z,-82
2018-10-03T07:49:37.816Z,-81
2018-10-03T07:52:08.246Z,-81
2018-10-03T07:54:38.530Z,-81
2018-10-03T07:57:08.895Z,-81
2018-10-03T07:59:39.173Z,-81
2018-10-03T08:02:09.656Z,-82
2018-10-03T08:04:39.964Z,-81
2018-10-03T08:07:10.389Z,-81
2018-10-03T08:09:40.657Z,-81
2018-10-03T08:12:10.952Z,-81
2018-10-03T08:14:41.779Z,-81
2018-10-03T08:17:12.065Z,-81
2018-10-03T08:19:42.332Z,-81
2018-10-03T08:22:13.433Z,-81
2018-10-03T08:24:43.776Z,-81
2018-10-03T08:27:14.277Z,-81
2018-10-03T08:29:45.026Z,-80
2018-10-03T08:32:15.378Z,-81
2018-10-03T08:34:45.691Z,-80
2018-10-03T08:37:16.459Z,-79
2018-10-03T08:39:47.005Z,-83
2018-10-03T08:42:17.382Z,-82
2018-10-03T08:44:47.847Z,-83
2018-10-03T08:47:18.358Z,-81
2018-10-03T08:49:48.698Z,-81
2018-10-03T08:52:19.088Z,-83
2018-10-03T08:54:49.726Z,-81
2018-10-03T08:57:20.142Z,-83
2018-10-03T08:59:50.567Z,-84
2018-10-03T09:02:21.166Z,-84
2018-10-03T09:04:51.538Z,-83
2018-10-03T09:07:22.284Z,-80
2018-10-03T09:09:52.565Z,-82
2018-10-03T09:12:22.950Z,-82
2018-10-03T09:14:53.205Z,-83
2018-10-03T09:17:23.607Z,-82
2018-10-03T09:19:53.989Z,-80
2018-10-03T09:22:24.251Z,-80
2018-10-03T09:24:54.493Z,-81
2018-10-03T09:27:24.811Z,-82
2018-10-03T09:29:55.084Z,-82
2018-10-03T09:32:25.362Z,-82
2018-10-03T09:34:55.662Z,-82
2018-10-03T09:37:25.966Z,-81
2018-10-03T09:39:57.475Z,-83
2018-10-03T09:42:28.086Z,-82
2018-10-03T09:44:58.452Z,-82
2018-10-03T09:47:29.043Z,-80
2018-10-03T09:49:59.418Z,-83
2018-10-03T09:52:29.883Z,-81
2018-10-03T09:55:00.131Z,-81
2018-10-03T09:57:30.429Z,-81
2018-10-03T10:00:00.673Z,-81
2018-10-03T10:02:31.002Z,-81
2018-10-03T10:05:01.232Z,-81
2018-10-03T10:07:31.650Z,-81
2018-10-03T10:10:01.914Z,-81
2018-10-03T10:12:32.207Z,-81
2018-10-03T10:15:02.489Z,-81
2018-10-03T10:17:32.773Z,-81
2018-10-03T10:20:03.043Z,-81
2018-10-03T10:22:33.358Z,-81
2018-10-03T10:25:03.619Z,-81
2018-10-03T10:27:33.922Z,-82
2018-10-03T10:30:04.291Z,-81
2018-10-03T10:32:34.880Z,-81
2018-10-03T10:35:05.134Z,-82
2018-10-03T10:37:35.437Z,-82
2018-10-03T10:40:05.791Z,-81
2018-10-03T10:42:36.049Z,-81
2018-10-03T10:45:06.806Z,-82
2018-10-03T10:47:37.112Z,-81
2018-10-03T10:50:07.535Z,-81
2018-10-03T10:52:37.854Z,-81
2018-10-03T10:55:08.115Z,-81
2018-10-03T10:57:38.408Z,-81
2018-10-03T11:00:08.893Z,-82
2018-10-03T11:02:39.350Z,-82
2018-10-03T11:05:09.624Z,-83
2018-10-03T11:07:39.922Z,-83
2018-10-03T11:10:10.168Z,-82
2018-10-03T11:12:40.481Z,-82
2018-10-03T11:15:10.749Z,-84
2018-10-03T11:17:41.029Z,-82
2018-10-03T11:20:11.333Z,-84
2018-10-03T11:22:41.906Z,-83
2018-10-03T11:25:12.911Z,-82
2018-10-03T11:27:43.212Z,-84
2018-10-03T11:30:13.454Z,-82
2018-10-03T11:32:43.733Z,-82
2018-10-03T11:35:14.235Z,-82
2018-10-03T11:37:44.956Z,-83
2018-10-03T11:40:15.748Z,-83
2018-10-03T11:42:46.158Z,-83
2018-10-03T11:45:17.058Z,-83
2018-10-03T11:47:47.339Z,-82
2018-10-03T11:50:17.698Z,-83
2018-10-03T11:52:48.071Z,-82
2018-10-03T11:55:18.326Z,-83
2018-10-03T11:57:48.695Z,-82
2018-10-03T12:00:19.166Z,-82
2018-10-03T12:02:49.574Z,-83
2018-10-03T12:05:19.931Z,-82
2018-10-03T12:07:50.232Z,-83
2018-10-03T12:10:21.088Z,-82
2018-10-03T12:12:51.325Z,-82
2018-10-03T12:15:21.705Z,-82
2018-10-03T12:17:52.038Z,-82
2018-10-03T12:20:22.329Z,-83
2018-10-03T12:22:52.589Z,-82
2018-10-03T12:25:23.225Z,-82
2018-10-03T12:27:53.491Z,-80
2018-10-03T12:30:24.215Z,-82
2018-10-03T12:32:54.503Z,-81
2018-10-03T12:35:29.918Z,-83
2018-10-03T12:38:00.208Z,-81
2018-10-03T12:40:31.590Z,-83
2018-10-03T12:43:01.906Z,-81
2018-10-03T12:45:32.150Z,-81
2018-10-03T12:48:02.498Z,-82
2018-10-03T12:50:32.732Z,-83
2018-10-03T12:53:03.022Z,-81
2018-10-03T12:55:33.742Z,-81
2018-10-03T12:58:04.030Z,-81
2018-10-03T13:00:34.510Z,-84
2018-10-03T13:03:04.786Z,-82
2018-10-03T13:05:35.037Z,-82
2018-10-03T13:08:07.260Z,-83
2018-10-03T13:10:37.550Z,-83
2018-10-03T13:13:07.957Z,-82
2018-10-03T13:15:38.408Z,-80
2018-10-03T13:18:08.678Z,-81
2018-10-03T13:20:38.974Z,-80
2018-10-03T13:23:09.246Z,-80
2018-10-03T13:25:39.525Z,-82
2018-10-03T13:28:09.816Z,-80
2018-10-03T13:30:40.118Z,-80
2018-10-03T13:33:10.389Z,-81
2018-10-03T13:35:40.623Z,-81
2018-10-03T13:38:10.925Z,-81
2018-10-03T13:40:41.183Z,-82
2018-10-03T13:43:11.458Z,-83
2018-10-03T13:45:42.738Z,-82
2018-10-03T13:48:13.283Z,-81
2018-10-03T13:50:43.873Z,-80
2018-10-03T13:53:14.859Z,-80
2018-10-03T13:55:45.542Z,-82
2018-10-03T13:58:16.392Z,-80
2018-10-03T14:00:48.298Z,-80
2018-10-03T14:03:19.258Z,-82
2018-10-03T14:05:49.630Z,-82
2018-10-03T14:08:19.986Z,-82
2018-10-03T14:10:53.262Z,-81
2018-10-03T14:13:23.813Z,-81
2018-10-03T14:15:54.297Z,-81
2018-10-03T14:18:24.666Z,-81
2018-10-03T14:20:54.892Z,-81
2018-10-03T14:23:25.289Z,-81
2018-10-03T14:25:55.634Z,-81
2018-10-03T14:28:25.973Z,-81
2018-10-03T14:30:56.738Z,-82
2018-10-03T14:33:27.382Z,-82
2018-10-03T14:35:57.677Z,-82
2018-10-03T14:38:27.967Z,-82
2018-10-03T14:40:58.250Z,-82
2018-10-03T14:43:29.199Z,-79
2018-10-03T14:45:59.499Z,-81
2018-10-03T14:48:29.798Z,-83
2018-10-03T14:51:00.034Z,-82
2018-10-03T14:53:30.400Z,-82
2018-10-03T14:56:00.709Z,-82
2018-10-03T14:58:31.319Z,-81
2018-10-03T15:01:01.694Z,-83
2018-10-03T15:03:31.967Z,-82
2018-10-03T15:06:02.218Z,-81
2018-10-03T15:08:32.542Z,-81
2018-10-03T15:11:02.924Z,-80
2018-10-03T15:13:33.250Z,-81
2018-10-03T15:16:03.564Z,-81
2018-10-03T15:18:33.872Z,-81
2018-10-03T15:21:04.287Z,-81
2018-10-03T15:23:34.687Z,-80
2018-10-03T15:26:04.966Z,-81
2018-10-03T15:28:35.726Z,-80
2018-10-03T15:31:06.096Z,-81
2018-10-03T15:33:36.442Z,-80
2018-10-03T15:36:06.762Z,-80
2018-10-03T15:38:37.119Z,-80
2018-10-03T15:41:08.769Z,-81
2018-10-03T15:43:40.346Z,-80
2018-10-03T15:46:13.015Z,-80
2018-10-03T15:48:45.399Z,-80
2018-10-03T15:51:17.240Z,-81
2018-10-03T15:53:47.674Z,-81
2018-10-03T15:56:18.006Z,-81
2018-10-03T15:58:48.333Z,-81
2018-10-03T16:01:18.823Z,-80
2018-10-03T16:03:49.190Z,-81
2018-10-03T16:06:19.725Z,-81
2018-10-03T16:08:50.041Z,-81
2018-10-03T16:11:20.512Z,-81
2018-10-03T16:13:50.822Z,-80
2018-10-03T16:16:21.101Z,-80
2018-10-03T16:18:51.442Z,-80
2018-10-03T16:21:22.097Z,-80
2018-10-03T16:23:52.427Z,-80
2018-10-03T16:26:22.854Z,-80
2018-10-03T16:28:53.072Z,-81
2018-10-03T16:31:23.914Z,-80
2018-10-03T16:33:54.247Z,-81
2018-10-03T16:36:26.010Z,-81
2018-10-03T16:38:56.480Z,-81
2018-10-03T16:41:26.749Z,-80
2018-10-03T16:43:57.023Z,-81
2018-10-03T16:46:27.280Z,-80
2018-10-03T16:48:57.823Z,-80
2018-10-03T16:51:28.234Z,-80
2018-10-03T16:53:58.573Z,-80
2018-10-03T16:56:29.035Z,-81
2018-10-03T16:58:59.370Z,-81
2018-10-03T17:01:30.037Z,-81
2018-10-03T17:04:00.379Z,-80
2018-10-03T17:06:30.647Z,-80
2018-10-03T17:09:01.260Z,-88
2018-10-03T17:11:31.517Z,-82
2018-10-03T17:14:36.969Z,-82
2018-10-03T17:17:07.743Z,-82
2018-10-03T17:19:38.358Z,-82
2018-10-03T17:22:09.309Z,-80
2018-10-03T17:27:27.386Z,-74
2018-10-03T17:29:59.125Z,-73
2018-10-03T17:32:29.915Z,-73
2018-10-03T17:35:00.317Z,-74
2018-10-03T17:37:30.716Z,-73
2018-10-03T17:40:01.435Z,-73
2018-10-03T17:42:31.799Z,-73
2018-10-03T17:45:03.276Z,-74
2018-10-03T17:47:34.361Z,-73
2018-10-03T17:50:04.830Z,-73
2018-10-03T17:52:36.770Z,-73
2018-10-03T17:55:07.822Z,-73
2018-10-03T17:57:39.184Z,-73
2018-10-03T18:00:10.097Z,-73
2018-10-03T18:02:41.047Z,-73
2018-10-03T18:05:12.055Z,-73
2018-10-03T18:07:42.441Z,-74
2018-10-03T18:10:14.504Z,-74
2018-10-03T18:12:45.705Z,-73
2018-10-03T18:15:17.040Z,-74
2018-10-03T18:17:47.998Z,-73
2018-10-03T18:20:20.214Z,-73
2018-10-03T18:22:50.783Z,-73
2018-10-03T18:25:21.287Z,-73
2018-10-03T18:27:52.652Z,-73
2018-10-03T18:30:51.226Z,-73
2018-10-03T18:33:25.730Z,-72
2018-10-03T18:36:01.301Z,-72
2018-10-03T18:38:31.740Z,-72
2018-10-03T18:41:03.262Z,-72
2018-10-03T18:43:39.756Z,-73
2018-10-03T18:46:13.022Z,-72
2018-10-03T18:48:44.389Z,-72
2018-10-03T18:51:16.598Z,-72
2018-10-03T18:53:47.548Z,-73
2018-10-03T18:56:18.635Z,-72
2018-10-03T18:58:48.942Z,-73
2018-10-03T19:01:21.350Z,-72
2018-10-03T19:03:51.771Z,-73
2018-10-03T19:06:22.414Z,-72
2018-10-03T19:08:53.430Z,-72
2018-10-03T19:11:24.785Z,-72
2018-10-03T19:13:58.231Z,-72
2018-10-03T19:16:29.307Z,-72
2018-10-03T19:19:18.327Z,-73
2018-10-03T19:21:55.049Z,-72
2018-10-03T19:24:27.762Z,-72
2018-10-03T19:26:59.358Z,-72
2018-10-03T19:29:29.916Z,-72
2018-10-03T19:32:00.461Z,-72
2018-10-03T19:34:30.990Z,-73
2018-10-03T19:37:03.225Z,-72
2018-10-03T19:39:33.954Z,-72
2018-10-03T19:42:04.787Z,-73
2018-10-03T19:44:35.445Z,-72
2018-10-03T19:47:06.233Z,-73
2018-10-03T19:49:36.702Z,-73
2018-10-03T19:52:07.206Z,-72
2018-10-03T19:54:37.747Z,-73
2018-10-03T19:57:08.185Z,-73
2018-10-03T19:59:38.845Z,-73
2018-10-03T20:02:09.642Z,-73
2018-10-03T20:04:39.974Z,-73
2018-10-03T20:07:10.432Z,-72
2018-10-03T20:09:40.721Z,-72
2018-10-03T20:12:11.004Z,-72
2018-10-03T20:14:41.856Z,-73
2018-10-03T20:17:12.157Z,-73
2018-10-03T20:19:42.573Z,-73
2018-10-03T20:22:12.968Z,-73
2018-10-03T20:24:43.354Z,-73
2018-10-03T20:27:13.996Z,-73
2018-10-03T20:29:45.105Z,-73
2018-10-03T20:32:15.483Z,-73
2018-10-03T20:34:46.510Z,-73
2018-10-03T20:37:17.011Z,-73
2018-10-03T20:39:47.395Z,-73
2018-10-03T20:42:18.188Z,-73
2018-10-03T20:44:49.182Z,-73
2018-10-03T20:47:20.083Z,-73
2018-10-03T20:49:51.146Z,-73
2018-10-03T20:52:22.235Z,-73
2018-10-03T20:54:53.022Z,-73
2018-10-03T20:57:23.431Z,-73
2018-10-03T20:59:54.541Z,-73
2018-10-03T21:02:25.038Z,-73
2018-10-03T21:04:55.443Z,-73
2018-10-03T21:07:25.790Z,-73
2018-10-03T21:09:56.156Z,-73
2018-10-03T21:12:26.726Z,-73
2018-10-03T21:14:57.225Z,-73
2018-10-03T21:17:27.901Z,-73
2018-10-03T21:19:58.563Z,-71
2018-10-03T21:22:29.247Z,-72
2018-10-03T21:24:59.600Z,-72
2018-10-03T21:27:30.038Z,-72
2018-10-03T21:30:00.501Z,-72
2018-10-03T21:32:31.195Z,-72
2018-10-03T21:35:03.406Z,-72
2018-10-03T21:37:33.791Z,-72
2018-10-03T21:40:04.344Z,-72
2018-10-03T21:42:35.002Z,-72
2018-10-03T21:45:05.691Z,-72
2018-10-03T21:47:36.502Z,-72
2018-10-03T21:50:07.178Z,-72
2018-10-03T21:52:37.509Z,-72
2018-10-03T21:55:08.239Z,-72
2018-10-03T21:57:38.960Z,-72
2018-10-03T22:00:09.901Z,-72
2018-10-03T22:02:40.881Z,-72
2018-10-03T22:05:11.339Z,-72
2018-10-03T22:07:42.717Z,-72
2018-10-03T22:10:13.099Z,-72
2018-10-03T22:12:43.841Z,-72
2018-10-03T22:15:14.219Z,-72
2018-10-03T22:17:45.230Z,-72
2018-10-03T22:20:16.664Z,-74
2018-10-03T22:23:49.885Z,-72
2018-10-03T22:26:20.266Z,-72
2018-10-03T22:28:51.149Z,-72
2018-10-03T22:31:22.022Z,-72
2018-10-03T22:33:52.418Z,-72
2018-10-03T22:36:23.806Z,-72
2018-10-03T22:38:54.287Z,-72
2018-10-03T22:41:24.986Z,-72
2018-10-03T22:43:55.358Z,-72
2018-10-03T22:46:25.719Z,-72
2018-10-03T22:48:56.514Z,-72
2018-10-03T22:51:27.273Z,-72
2018-10-03T22:53:57.634Z,-72
2018-10-03T22:56:28.016Z,-72
2018-10-03T22:58:58.575Z,-72
2018-10-03T23:01:29.256Z,-72
2018-10-03T23:04:00.267Z,-72
2018-10-03T23:06:30.718Z,-72
2018-10-03T23:09:01.598Z,-72
2018-10-03T23:11:33.265Z,-72
2018-10-03T23:14:10.150Z,-72
2018-10-03T23:16:40.952Z,-72
2018-10-03T23:19:11.510Z,-72
2018-10-03T23:21:42.590Z,-72
2018-10-03T23:24:12.971Z,-72
2018-10-03T23:26:44.014Z,-72
2018-10-03T23:29:14.615Z,-72
2018-10-03T23:31:45.665Z,-72
2018-10-03T23:34:17.011Z,-72
2018-10-03T23:36:47.420Z,-72
2018-10-03T23:39:18.082Z,-72
2018-10-03T23:41:48.564Z,-72
2018-10-03T23:44:19.348Z,-72
2018-10-03T23:46:50.024Z,-72
2018-10-03T23:49:20.799Z,-72
2018-10-03T23:51:51.311Z,-72
2018-10-03T23:54:21.641Z,-72
2018-10-03T23:56:53.191Z,-72
2018-10-03T23:59:24.155Z,-72
